Silver Lake, WI

4:54 PM CDT on September 04, 2015 (GMT -0500)
KWITWINL2 | | Change Station
CLOSE
Current Station
Personal Weather Station
Location: Bassett, WI
Elevation: 849 ft
Nearby Weather Stations

Elev 849 ft 42.53 °N, 88.21 °W | Updated 6 minutes ago

Partly Cloudy
Partly Cloudy
75.5 °F
Feels Like 76 °F
N
0.0
Wind Variable Wind from East
Gusts 6.0 mph

Today
High -- | Low -- °F
--% Chance of Precip.
Yesterday
High -- | Low -- °F
Precip. -- in
6:20 AM 7:22 PM
Waning Gibbous, 55% visible
Pressure 30.02 in
Visibility 10.0 miles
Clouds Clear
Heat Index 76 °F
Dew Point 70 °F
Humidity 83%
Rainfall 0.00 in
Snow Depth Not available.
UV 3 out of 12
Pollen 9.00 out of 12
Air Quality Not available.
Flu Activity Not available.
METAR KBUU 042135Z AUTO 06005KT 10SM CLR 26/20 A3002 RMK AO2 T02640197
Pressure 30.02 in
Visibility 10.0 miles
Clouds Clear
Heat Index 76 °F
Dew Point 70 °F
Humidity 83%
Rainfall 0.00 in
Snow Depth Not available.
UV 3 out of 12
Pollen 9.00 out of 12
Air Quality Not available.
Flu Activity Not available.
METAR KBUU 042135Z AUTO 06005KT 10SM CLR 26/20 A3002 RMK AO2 T02640197

10-Day Weather Forecast

×

Almanac

Astronomy

Sep. 04, 2015 Rise Set
Actual Time
Civil Twilight
Nautical Twilight
Astronomical Twilight
Moon
Length of Visible Light
Length of Day
Tomorrow will be .
, % of the Moon is Illuminated

Today's Extremes

State Highs State Lows

Community

WunderPhotos

Upload Photos

1,852,297 photos uploaded!

WunderBlogs® & News

Nearby

Air Quality

  Air Quality AQ Index Pollutant
Not available.

Snow Depth

Station Depth Elevation

Earthquake Activity

City Distance Mag. Time & Date
Minimum magnitude displayed is 2.5.

Coastal Water Temperatures

Place Temperature

Stations

Nearby Weather Stations

Station Location Temp. Windchill Dew Point Humidity Wind Precip. Elev Updated Type